»·PEaware :: N172SP KCRQ-KCRQ

N172SP :: KCRQ-KCRQ

FLIGHT INFORMATION

Flight Status: Arrived
Operator: Privately registered:
United States
More flights under this callsign
Pilot: Ron M. (31128)
Aircraft: CESSNA 172 SKYHAWK
(C172)
More flights by this aircraft type
Origin: KCRQ McClellan-Palomar
United States
Destination: KCRQ McClellan-Palomar
United States
More flights between these airports :: More routes between these airports
Route: +
File this flight plan on PilotEdge
Remarks:
Altitude:
(Current/Filed)
0ft
Speed:
(Current/Filed)
115kts
Departed: 25-Sep-20 04:06 PM
Arrived: 25-Sep-20 05:06 PM
Distance/Time
Traveled:
0nm/0:59
Distance/Time
To Go:
Arrived

Flight Plot

Page will automatically refresh every two minutes.


Map Options




Map Legend


Flown Route
Filed Route
Departure Airport
Arrival Airport
Navaid (VOR, NDB)
Fix

Horizontal Profiles

Position Reports

Time Latitude Longitude Heading Altitude Ground
Speed
25-Sep-20 16:00 33.128213 -117.273387 341 335ft 0kts
25-Sep-20 16:01 33.128741 -117.272375 14 335ft 0kts
25-Sep-20 16:02 33.128742 -117.272375 13 335ft 0kts
25-Sep-20 16:03 33.128741 -117.272375 13 335ft 0kts
25-Sep-20 16:04 33.129167 -117.272282 353 335ft 11kts
25-Sep-20 16:05 33.127790 -117.291206 265 893ft 75kts
25-Sep-20 16:06 33.140869 -117.290552 72 1825ft 75kts
25-Sep-20 16:07 33.156826 -117.277413 0 2705ft 76kts
25-Sep-20 16:08 33.176762 -117.268845 28 3494ft 79kts
25-Sep-20 16:09 33.194594 -117.254015 22 4237ft 79kts
25-Sep-20 16:10 33.214364 -117.242771 14 4965ft 80kts
25-Sep-20 16:11 33.236510 -117.235360 19 5411ft 89kts
25-Sep-20 16:12 33.259359 -117.223727 27 5512ft 89kts
25-Sep-20 16:13 33.280784 -117.208719 24 5600ft 90kts
25-Sep-20 16:14 33.304434 -117.198851 22 5725ft 89kts
25-Sep-20 16:15 33.327615 -117.187300 18 5838ft 90kts
25-Sep-20 16:16 33.351875 -117.175813 27 5564ft 92kts
25-Sep-20 16:17 33.374063 -117.159924 45 4958ft 92kts
25-Sep-20 16:18 33.388333 -117.134659 39 4476ft 91kts
25-Sep-20 16:19 33.410387 -117.119817 26 4048ft 91kts
25-Sep-20 16:20 33.434967 -117.113479 7 3663ft 89kts
25-Sep-20 16:21 33.459832 -117.111250 352 3278ft 90kts
25-Sep-20 16:22 33.484701 -117.120012 340 2641ft 94kts
25-Sep-20 16:23 33.509084 -117.132128 344 2300ft 93kts
25-Sep-20 16:24 33.534360 -117.133233 347 2091ft 91kts
25-Sep-20 16:25 33.555888 -117.133697 18 1762ft 67kts
25-Sep-20 16:26 33.569977 -117.129798 282 1354ft 14kts
25-Sep-20 16:27 33.566982 -117.131184 194 1354ft 15kts
25-Sep-20 16:28 33.566302 -117.131163 103 1354ft 0kts
25-Sep-20 16:29 33.566302 -117.131161 103 1354ft 0kts
25-Sep-20 16:30 33.566302 -117.131161 103 1354ft 0kts
25-Sep-20 16:31 33.567455 -117.130270 13 1354ft 44kts
25-Sep-20 16:32 33.587296 -117.122158 62 2109ft 80kts
25-Sep-20 16:33 33.574605 -117.108511 196 2501ft 99kts
25-Sep-20 16:34 33.550202 -117.118048 218 2229ft 78kts
25-Sep-20 16:35 33.556992 -117.134020 22 1715ft 62kts
25-Sep-20 16:36 33.570105 -117.129814 294 1354ft 5kts
25-Sep-20 16:37 33.570029 -117.130296 229 1354ft 0kts
25-Sep-20 16:38 33.568095 -117.130909 192 1354ft 14kts
25-Sep-20 16:39 33.566320 -117.131177 101 1354ft 0kts
25-Sep-20 16:40 33.566320 -117.131177 101 1354ft 0kts
25-Sep-20 16:41 33.568254 -117.130039 13 1354ft 53kts
25-Sep-20 16:42 33.589277 -117.123475 22 2059ft 74kts
25-Sep-20 16:43 33.607860 -117.132921 289 2793ft 80kts
25-Sep-20 16:44 33.605765 -117.159091 251 3562ft 80kts
25-Sep-20 16:45 33.590620 -117.178579 208 4319ft 82kts
25-Sep-20 16:46 33.567276 -117.188034 199 4529ft 89kts
25-Sep-20 16:47 33.544975 -117.201212 204 4570ft 90kts
25-Sep-20 16:48 33.521316 -117.210565 198 4614ft 90kts
25-Sep-20 16:49 33.497542 -117.219274 187 4658ft 90kts
25-Sep-20 16:50 33.472526 -117.220186 179 4703ft 89kts
25-Sep-20 16:51 33.447662 -117.222302 191 4740ft 90kts
25-Sep-20 16:52 33.423253 -117.229916 196 4470ft 91kts
25-Sep-20 16:53 33.398002 -117.231628 180 3882ft 90kts
25-Sep-20 16:54 33.372837 -117.231878 183 3358ft 90kts
25-Sep-20 16:55 33.347446 -117.233411 171 3359ft 92kts
25-Sep-20 16:57 33.321703 -117.237717 193 3390ft 96kts
25-Sep-20 16:58 33.296650 -117.248404 191 3443ft 95kts
25-Sep-20 16:59 33.268422 -117.252655 185 3322ft 110kts
25-Sep-20 17:00 33.240089 -117.254385 186 3275ft 99kts
25-Sep-20 17:01 33.213313 -117.255465 162 2617ft 96kts
25-Sep-20 17:02 33.187730 -117.245564 166 1790ft 96kts
25-Sep-20 17:03 33.161726 -117.241721 184 1319ft 92kts
25-Sep-20 17:04 33.136139 -117.240863 195 1231ft 95kts
25-Sep-20 17:05 33.130780 -117.263492 260 688ft 61kts
25-Sep-20 17:06 33.128496 -117.278638 249 335ft 20kts
25-Sep-20 17:07 33.127563 -117.279300 97 335ft 4kts
25-Sep-20 17:08 33.128287 -117.274736 79 335ft 16kts
25-Sep-20 17:09 33.128290 -117.273238 347 335ft 0kts
25-Sep-20 17:10 33.128290 -117.273238 347 335ft 0kts
25-Sep-20 17:11 33.128290 -117.273238 347 335ft 0kts
25-Sep-20 17:12 33.128290 -117.273238 347 335ft 0kts
25-Sep-20 17:13 33.128290 -117.273238 347 335ft 0kts
25-Sep-20 17:13 33.128290 -117.273238 347 335ft 0kts
25-Sep-20 17:14 33.128290 -117.273238 347 335ft 0kts
25-Sep-20 17:16 33.128290 -117.273238 347 335ft 0kts
25-Sep-20 17:16 33.128290 -117.273238 347 335ft 0kts
25-Sep-20 17:17 33.128290 -117.273238 347 335ft 0kts
25-Sep-20 17:19 33.128290 -117.273238 347 335ft 0kts
25-Sep-20 17:19 33.128290 -117.273238 347 335ft 0kts

Navigation Log

Ident Type
Flight plan parsing failed, navigation log unavailable